Time;durP1;ratioP1;P1;durP2;ratioP2;P2;SDS_P1;SDS_P2;PMS_P1;PMS_P2;Temp;Humidity;BMP_temperature;BMP_pressure;BME280_temperature;BME280_humidity;BME280_pressure;Samples;Min_cycle;Max_cycle;Signal;HPM_P1;HPM_P2
2021/12/12 00:02:07;;;;;;;9.57;1.80;;;3.30;99.90;;;;;;5048584;28;20197;-69
2021/12/12 00:04:37;;;;;;;3.20;2.25;;;3.30;99.90;;;;;;5085983;22;20322;-68
2021/12/12 00:07:08;;;;;;;2.25;2.05;;;3.30;99.90;;;;;;5085833;28;20251;-67
2021/12/12 00:09:37;;;;;;;9.80;2.20;;;3.30;99.90;;;;;;5076771;28;20622;-66
2021/12/12 00:12:08;;;;;;;2.10;1.90;;;3.40;99.90;;;;;;5086764;28;20638;-66
2021/12/12 00:14:36;;;;;;;3.60;1.80;;;3.30;99.90;;;;;;5073748;28;20376;-67
2021/12/12 00:17:07;;;;;;;3.17;2.42;;;3.30;99.90;;;;;;5064724;28;20276;-68
2021/12/12 00:19:35;;;;;;;2.67;2.20;;;3.30;99.90;;;;;;5069253;28;20210;-65
2021/12/12 00:22:07;;;;;;;2.10;2.00;;;3.30;99.90;;;;;;5073635;28;20207;-68
2021/12/12 00:24:34;;;;;;;1.75;1.65;;;3.30;99.90;;;;;;5064611;28;20220;-67
2021/12/12 00:27:01;;;;;;;2.13;2.03;;;3.30;99.90;;;;;;5077442;28;20239;-65
2021/12/12 00:29:28;;;;;;;2.08;1.98;;;3.40;99.90;;;;;;5064919;28;20207;-65
2021/12/12 00:31:59;;;;;;;1.63;1.52;;;3.40;99.90;;;;;;5065659;28;20205;-66
2021/12/12 00:34:27;;;;;;;2.55;2.38;;;3.40;99.90;;;;;;5065615;28;20231;-68
2021/12/12 00:36:54;;;;;;;2.17;1.73;;;3.30;99.90;;;;;;5065109;28;20203;-66
2021/12/12 00:39:26;;;;;;;2.05;0.90;;;3.30;99.90;;;;;;5066034;28;20350;-67
2021/12/12 00:41:57;;;;;;;2.25;1.67;;;3.40;99.90;;;;;;5070436;28;20209;-66
2021/12/12 00:44:25;;;;;;;2.47;2.28;;;3.40;99.90;;;;;;5072693;28;20321;-67
2021/12/12 00:46:54;;;;;;;2.00;1.90;;;3.40;99.90;;;;;;5066426;28;20210;-67
2021/12/12 00:49:23;;;;;;;4.30;1.83;;;3.50;99.90;;;;;;5065477;28;20221;-67
2021/12/12 00:51:51;;;;;;;2.97;1.88;;;3.50;99.90;;;;;;5066289;28;20264;-67
2021/12/12 00:54:19;;;;;;;2.25;1.70;;;3.50;99.90;;;;;;5068987;28;20222;-67
2021/12/12 00:56:47;;;;;;;2.55;1.95;;;3.40;99.90;;;;;;5062422;28;20845;-67
2021/12/12 00:59:15;;;;;;;11.35;1.88;;;3.50;99.90;;;;;;5062054;28;20216;-67
2021/12/12 01:01:45;;;;;;;2.70;2.50;;;3.50;99.90;;;;;;5066923;28;20248;-66
2021/12/12 01:04:15;;;;;;;1.88;1.67;;;3.50;99.90;;;;;;5071580;28;20238;-68
2021/12/12 01:06:45;;;;;;;3.28;1.70;;;3.50;99.90;;;;;;5077679;28;20222;-67
2021/12/12 01:09:16;;;;;;;2.00;1.90;;;3.60;99.90;;;;;;5075062;28;20203;-66
2021/12/12 01:11:47;;;;;;;1.35;1.27;;;3.60;99.90;;;;;;5073726;28;20219;-65
2021/12/12 01:14:17;;;;;;;4.03;2.00;;;3.60;99.90;;;;;;5066294;28;20262;-66
2021/12/12 01:16:48;;;;;;;2.20;1.23;;;3.60;99.90;;;;;;5072923;28;20206;-67
2021/12/12 01:19:18;;;;;;;2.10;1.23;;;3.70;99.90;;;;;;5071873;28;20668;-66
2021/12/12 01:21:50;;;;;;;3.13;2.22;;;3.70;99.90;;;;;;5069800;28;20219;-68
2021/12/12 01:24:24;;;;;;;3.05;1.48;;;3.70;99.90;;;;;;5070580;28;20321;-66
2021/12/12 01:26:53;;;;;;;2.47;2.28;;;3.70;99.90;;;;;;5070860;28;20210;-66
2021/12/12 01:29:20;;;;;;;1.73;1.63;;;3.70;99.90;;;;;;5069255;28;20291;-65
2021/12/12 01:31:48;;;;;;;2.53;2.33;;;3.60;99.90;;;;;;5077435;28;20220;-68
2021/12/12 01:34:22;;;;;;;2.50;1.20;;;3.70;99.90;;;;;;5068909;28;20756;-68
2021/12/12 01:37:06;;;;;;;1.20;1.10;;;3.70;99.90;;;;;;5069720;28;20218;-66
2021/12/12 01:39:37;;;;;;;1.30;1.20;;;3.70;99.90;;;;;;5068022;28;20336;-65
2021/12/12 01:42:07;;;;;;;1.67;1.45;;;3.60;99.90;;;;;;5069047;28;20260;-66
2021/12/12 01:44:37;;;;;;;6.47;1.90;;;3.70;99.90;;;;;;5069820;28;20231;-68
2021/12/12 01:47:07;;;;;;;1.30;1.20;;;3.70;99.90;;;;;;5070152;28;20202;-66
2021/12/12 01:49:38;;;;;;;3.20;1.55;;;3.70;99.90;;;;;;5071920;28;20219;-67
2021/12/12 01:52:09;;;;;;;2.05;1.85;;;3.60;99.90;;;;;;5072485;28;20213;-65
2021/12/12 01:54:43;;;;;;;2.30;1.73;;;3.60;99.90;;;;;;5072105;28;20290;-66
2021/12/12 01:57:13;;;;;;;2.40;2.20;;;3.60;99.90;;;;;;5071671;28;20202;-66
2021/12/12 01:59:42;;;;;;;1.63;1.52;;;3.50;99.90;;;;;;5086140;28;20225;-66
2021/12/12 02:02:14;;;;;;;1.60;1.50;;;3.50;99.90;;;;;;5076074;28;20281;-65
2021/12/12 02:04:44;;;;;;;2.10;1.52;;;3.50;99.90;;;;;;5081020;28;20727;-65
2021/12/12 02:07:18;;;;;;;1.60;1.45;;;3.50;99.90;;;;;;5073006;28;20234;-65
2021/12/12 02:09:46;;;;;;;1.35;1.25;;;3.50;99.90;;;;;;5078259;28;20579;-68
2021/12/12 02:12:13;;;;;;;0.90;0.90;;;3.50;99.90;;;;;;5067058;28;20210;-66
2021/12/12 02:14:43;;;;;;;9.23;3.35;;;3.50;99.90;;;;;;5067927;28;20291;-68
2021/12/12 02:17:17;;;;;;;2.25;2.15;;;3.50;99.90;;;;;;5067447;28;20308;-66
2021/12/12 02:20:00;;;;;;;1.40;1.30;;;3.50;99.90;;;;;;5068164;28;20210;-65
2021/12/12 02:22:43;;;;;;;3.13;2.03;;;3.60;99.90;;;;;;5066977;28;20283;-67
2021/12/12 02:36:17;;;;;;;16.25;3.05;;;3.60;99.90;;;;;;5062436;28;20247;-66
2021/12/12 02:38:46;;;;;;;2.00;1.60;;;3.60;99.90;;;;;;5064154;28;20239;-68
2021/12/12 02:41:17;;;;;;;1.88;1.73;;;3.60;99.90;;;;;;5066748;28;20207;-66
2021/12/12 02:43:49;;;;;;;2.65;1.48;;;3.60;99.90;;;;;;5066727;28;20295;-65
2021/12/12 02:46:19;;;;;;;1.88;1.73;;;3.60;99.90;;;;;;5065447;28;20264;-68
2021/12/12 02:48:47;;;;;;;3.65;2.20;;;3.60;99.90;;;;;;5075893;28;20620;-68
2021/12/12 02:51:17;;;;;;;3.03;2.72;;;3.60;99.90;;;;;;5070171;28;20256;-68
2021/12/12 02:53:48;;;;;;;3.70;1.65;;;3.70;99.90;;;;;;5064327;28;20236;-68
2021/12/12 02:56:17;;;;;;;4.18;1.25;;;3.70;99.90;;;;;;5062404;28;20334;-67
2021/12/12 02:58:46;;;;;;;2.25;2.15;;;3.70;99.90;;;;;;5062934;28;21126;-67
2021/12/12 03:01:17;;;;;;;1.45;1.35;;;3.70;99.90;;;;;;5066982;28;20207;-67
2021/12/12 03:03:45;;;;;;;1.77;1.00;;;3.70;99.90;;;;;;5067761;28;20242;-67
2021/12/12 03:06:16;;;;;;;2.35;1.83;;;3.80;99.90;;;;;;5064236;28;20616;-67
2021/12/12 03:08:48;;;;;;;2.28;1.75;;;3.70;99.90;;;;;;5068747;28;20202;-67
2021/12/12 03:11:15;;;;;;;3.33;0.80;;;3.80;99.90;;;;;;5077297;28;20570;-67
2021/12/12 03:13:43;;;;;;;1.65;1.45;;;3.80;99.90;;;;;;5080494;28;20231;-67
2021/12/12 03:16:11;;;;;;;2.30;1.20;;;3.80;99.90;;;;;;5067450;28;20223;-66
2021/12/12 03:18:41;;;;;;;2.28;1.45;;;3.80;99.90;;;;;;5066053;28;20663;-67
2021/12/12 03:21:15;;;;;;;2.08;1.27;;;3.80;99.90;;;;;;5066560;28;20203;-67
2021/12/12 03:23:45;;;;;;;1.80;1.67;;;3.80;99.90;;;;;;5066572;28;20219;-67
2021/12/12 03:26:17;;;;;;;9.68;2.70;;;3.80;99.90;;;;;;5066373;28;20197;-67
2021/12/12 03:28:46;;;;;;;1.48;1.38;;;3.80;99.90;;;;;;5066010;28;20297;-67
2021/12/12 03:31:17;;;;;;;1.70;1.60;;;3.80;99.90;;;;;;5066866;28;20196;-67
2021/12/12 03:33:45;;;;;;;5.80;2.05;;;3.80;99.90;;;;;;5065682;28;20229;-67
2021/12/12 03:36:14;;;;;;;1.58;1.48;;;3.80;99.90;;;;;;5066067;28;20302;-67
2021/12/12 03:38:43;;;;;;;7.28;2.63;;;3.80;99.90;;;;;;5066525;28;20210;-67
2021/12/12 03:41:16;;;;;;;5.35;2.00;;;3.90;99.90;;;;;;5066388;28;20207;-67
2021/12/12 03:43:45;;;;;;;2.05;1.92;;;3.90;99.90;;;;;;5068269;28;20219;-67
2021/12/12 03:46:12;;;;;;;6.22;2.50;;;3.90;99.90;;;;;;5065349;28;20339;-67
2021/12/12 03:48:41;;;;;;;3.75;2.30;;;3.90;99.90;;;;;;5065707;28;20553;-70
2021/12/12 03:51:10;;;;;;;1.40;1.30;;;3.90;99.90;;;;;;5066024;28;20204;-67
2021/12/12 03:53:39;;;;;;;3.00;2.80;;;4.00;99.90;;;;;;5066359;28;20284;-67
2021/12/12 03:56:07;;;;;;;2.65;1.40;;;3.90;99.90;;;;;;5061429;28;20213;-69
2021/12/12 03:58:36;;;;;;;1.38;1.27;;;3.90;99.90;;;;;;5064938;28;20203;-68
2021/12/12 04:01:08;;;;;;;5.00;1.40;;;3.90;99.90;;;;;;5065424;28;20259;-68
2021/12/12 04:03:35;;;;;;;3.15;2.67;;;4.00;99.90;;;;;;5063806;28;20221;-68
2021/12/12 04:06:07;;;;;;;6.45;2.35;;;4.00;99.90;;;;;;5065864;28;20265;-66
2021/12/12 04:08:36;;;;;;;4.50;2.20;;;4.00;99.90;;;;;;5065718;28;20223;-68
2021/12/12 04:11:07;;;;;;;1.90;1.80;;;4.00;99.90;;;;;;5065331;28;20222;-66
2021/12/12 04:13:40;;;;;;;2.10;2.00;;;4.00;99.90;;;;;;5072712;28;20223;-67
2021/12/12 04:16:07;;;;;;;1.88;1.50;;;4.00;99.90;;;;;;5070356;28;20318;-68
2021/12/12 04:18:34;;;;;;;1.52;1.42;;;4.10;99.90;;;;;;5065468;28;20505;-67
2021/12/12 04:21:01;;;;;;;3.33;2.17;;;4.10;99.90;;;;;;5065232;28;20215;-68
2021/12/12 04:23:28;;;;;;;3.20;2.88;;;4.10;99.90;;;;;;5065788;28;20262;-67
2021/12/12 04:25:55;;;;;;;4.78;1.83;;;4.10;99.90;;;;;;5065613;28;20833;-67
2021/12/12 04:28:22;;;;;;;2.58;2.38;;;4.10;99.90;;;;;;5063879;28;20693;-66
2021/12/12 04:30:50;;;;;;;1.63;1.52;;;4.10;99.90;;;;;;5066397;28;20195;-68
2021/12/12 04:33:17;;;;;;;2.10;2.00;;;4.00;99.90;;;;;;5065736;28;20203;-68
2021/12/12 04:35:43;;;;;;;1.98;1.83;;;4.00;99.90;;;;;;5064907;28;20223;-66
2021/12/12 04:38:10;;;;;;;2.30;1.67;;;4.00;99.90;;;;;;5066700;28;20202;-66
2021/12/12 04:40:37;;;;;;;1.92;1.45;;;4.00;99.90;;;;;;5066371;28;20252;-67
2021/12/12 04:43:05;;;;;;;2.05;1.85;;;4.00;99.90;;;;;;5065983;28;20289;-67
2021/12/12 04:45:51;;;;;;;2.05;1.88;;;3.90;99.90;;;;;;5066322;28;20261;-68
2021/12/12 04:51:20;;;;;;;2.90;1.67;;;3.90;99.90;;;;;;5061330;28;20455;-68
2021/12/12 04:53:49;;;;;;;1.45;1.30;;;3.90;99.90;;;;;;5062717;28;20251;-66
2021/12/12 04:56:23;;;;;;;2.03;1.92;;;3.90;99.90;;;;;;5065902;28;20586;-67
2021/12/12 04:58:58;;;;;;;2.08;1.63;;;3.90;99.90;;;;;;5065614;28;20579;-65
2021/12/12 05:01:31;;;;;;;4.13;2.42;;;3.90;99.90;;;;;;5059247;28;20205;-67
2021/12/12 05:04:03;;;;;;;2.70;2.22;;;3.90;99.90;;;;;;5058312;28;20237;-67
2021/12/12 05:06:34;;;;;;;3.65;2.33;;;3.90;99.90;;;;;;5065299;28;20582;-67
2021/12/12 05:09:07;;;;;;;2.45;1.85;;;3.90;99.90;;;;;;5064878;28;20652;-69
2021/12/12 05:11:45;;;;;;;5.45;1.63;;;4.00;99.90;;;;;;5064525;28;20228;-67
2021/12/12 05:14:21;;;;;;;1.38;1.27;;;4.00;99.90;;;;;;5065252;28;20231;-68
2021/12/12 05:16:52;;;;;;;5.95;1.98;;;3.90;99.90;;;;;;5063936;28;20230;-68
2021/12/12 05:19:28;;;;;;;1.90;1.80;;;3.90;99.90;;;;;;5064356;28;20228;-67
2021/12/12 05:22:00;;;;;;;4.45;1.63;;;4.00;99.90;;;;;;5063537;28;20644;-66
2021/12/12 05:24:30;;;;;;;4.70;2.13;;;3.90;99.90;;;;;;5065271;28;20259;-68
2021/12/12 05:27:02;;;;;;;3.33;1.88;;;3.90;99.90;;;;;;5063146;28;20235;-68
2021/12/12 05:29:33;;;;;;;14.35;2.80;;;4.00;99.90;;;;;;5063721;28;20206;-66
2021/12/12 05:32:05;;;;;;;7.07;2.90;;;3.90;99.90;;;;;;5059072;28;20265;-68
2021/12/12 05:34:36;;;;;;;2.88;2.67;;;3.90;99.90;;;;;;5065157;28;20223;-68
2021/12/12 05:37:04;;;;;;;1.35;1.25;;;3.90;99.90;;;;;;5063981;28;20219;-68
2021/12/12 05:39:33;;;;;;;2.53;1.50;;;3.90;99.90;;;;;;5063924;28;20690;-67
2021/12/12 05:42:00;;;;;;;3.55;2.50;;;4.00;99.90;;;;;;5064757;28;20597;-68
2021/12/12 05:44:31;;;;;;;2.88;2.60;;;4.00;99.90;;;;;;5063915;28;20217;-68
2021/12/12 05:47:00;;;;;;;2.10;1.58;;;3.90;99.90;;;;;;5064417;28;20218;-68
2021/12/12 05:49:28;;;;;;;2.20;1.98;;;3.90;99.90;;;;;;5063466;28;20579;-68
2021/12/12 05:51:56;;;;;;;4.20;1.60;;;3.90;99.90;;;;;;5066526;28;20215;-68
2021/12/12 05:54:24;;;;;;;2.55;2.35;;;3.90;99.90;;;;;;5069737;28;20791;-68
2021/12/12 05:56:52;;;;;;;1.50;1.40;;;3.90;99.90;;;;;;5067604;28;20236;-68
2021/12/12 05:59:20;;;;;;;2.55;2.20;;;3.90;99.90;;;;;;5067106;28;20526;-67
2021/12/12 06:01:48;;;;;;;2.20;2.00;;;3.90;99.90;;;;;;5069766;28;20202;-67
2021/12/12 06:04:17;;;;;;;2.95;1.95;;;3.90;99.90;;;;;;5073666;22;20218;-71
2021/12/12 06:06:45;;;;;;;3.63;2.45;;;3.90;99.90;;;;;;5047789;28;20199;-70
2021/12/12 06:09:16;;;;;;;5.82;2.53;;;3.90;99.90;;;;;;5050483;28;20207;-71
2021/12/12 06:11:45;;;;;;;1.75;1.65;;;3.90;99.90;;;;;;5050889;28;20806;-69
2021/12/12 06:14:13;;;;;;;2.88;1.92;;;3.90;99.90;;;;;;5049889;28;20227;-70
2021/12/12 06:16:41;;;;;;;2.35;1.67;;;4.00;99.90;;;;;;5051071;28;20233;-68
2021/12/12 06:19:11;;;;;;;1.52;1.20;;;4.00;99.90;;;;;;5049969;28;20207;-69
2021/12/12 06:21:39;;;;;;;1.30;1.30;;;4.00;99.90;;;;;;5050602;28;20356;-70
2021/12/12 06:24:06;;;;;;;3.25;1.75;;;4.10;99.90;;;;;;5050995;28;20204;-68
2021/12/12 06:26:34;;;;;;;2.38;2.10;;;4.10;99.90;;;;;;5050093;28;20231;-68
2021/12/12 06:29:01;;;;;;;2.28;1.77;;;4.10;99.90;;;;;;5049400;28;20735;-68
2021/12/12 06:31:28;;;;;;;1.90;1.33;;;4.10;99.90;;;;;;5055442;28;20202;-70
2021/12/12 06:33:56;;;;;;;1.67;1.58;;;4.10;99.90;;;;;;5060881;28;20207;-69
2021/12/12 06:36:23;;;;;;;1.55;1.45;;;4.10;99.90;;;;;;5050510;28;20218;-68
2021/12/12 06:38:53;;;;;;;4.15;3.22;;;4.10;99.90;;;;;;5050673;28;20260;-68
2021/12/12 06:41:20;;;;;;;3.47;2.08;;;4.10;99.90;;;;;;5048454;28;20457;-68
2021/12/12 06:43:50;;;;;;;4.10;2.95;;;4.20;99.90;;;;;;5050608;28;20626;-70
2021/12/12 06:46:19;;;;;;;5.00;2.42;;;4.20;99.90;;;;;;5049846;28;20214;-69
2021/12/12 06:48:46;;;;;;;2.92;2.58;;;4.20;99.90;;;;;;5049913;28;20199;-70
2021/12/12 06:51:14;;;;;;;2.15;1.73;;;4.20;99.90;;;;;;5049991;28;20204;-68
2021/12/12 06:53:45;;;;;;;2.22;2.13;;;4.20;99.90;;;;;;5050563;28;20211;-71
2021/12/12 06:56:16;;;;;;;4.38;2.55;;;4.20;99.90;;;;;;5045175;28;20293;-67
2021/12/12 06:58:43;;;;;;;2.72;2.25;;;4.20;99.90;;;;;;5049729;28;20745;-70
2021/12/12 07:01:17;;;;;;;1.63;1.52;;;4.20;99.90;;;;;;5049576;28;21008;-68
2021/12/12 07:03:45;;;;;;;1.73;1.63;;;4.30;99.90;;;;;;5050605;28;20209;-68
2021/12/12 07:06:13;;;;;;;13.88;3.53;;;4.30;99.90;;;;;;5050127;28;20239;-68
2021/12/12 07:08:40;;;;;;;3.22;2.38;;;4.30;99.90;;;;;;5049918;28;20210;-68
2021/12/12 07:11:07;;;;;;;3.60;2.25;;;4.30;99.90;;;;;;5049502;28;20284;-69
2021/12/12 07:13:34;;;;;;;2.08;1.75;;;4.30;99.90;;;;;;5050392;28;20270;-71
2021/12/12 07:16:08;;;;;;;2.13;1.63;;;4.30;99.90;;;;;;5047628;28;20269;-69
2021/12/12 07:18:37;;;;;;;4.15;3.10;;;4.40;99.90;;;;;;5049748;28;20216;-70
2021/12/12 07:21:09;;;;;;;1.63;1.52;;;4.30;99.90;;;;;;5045839;28;20276;-68
2021/12/12 07:23:38;;;;;;;1.52;1.42;;;4.40;99.90;;;;;;5049211;28;20204;-68
2021/12/12 07:26:07;;;;;;;1.83;1.45;;;4.50;99.90;;;;;;5050074;28;21697;-67
2021/12/12 07:28:34;;;;;;;2.55;2.35;;;4.50;99.90;;;;;;5049672;28;20208;-68
2021/12/12 07:31:04;;;;;;;1.63;1.52;;;4.50;99.90;;;;;;5050220;28;20253;-68
2021/12/12 07:33:32;;;;;;;2.15;2.05;;;4.50;99.90;;;;;;5054209;28;20692;-68
2021/12/12 07:36:05;;;;;;;2.13;1.95;;;4.50;99.90;;;;;;5049736;28;20223;-68
2021/12/12 07:38:33;;;;;;;3.30;1.73;;;4.50;99.90;;;;;;5046401;28;20230;-68
2021/12/12 07:41:01;;;;;;;2.10;1.20;;;4.50;99.90;;;;;;5050218;28;20208;-69
2021/12/12 07:43:30;;;;;;;2.47;2.00;;;4.50;99.90;;;;;;5050239;28;20207;-67
2021/12/12 07:45:57;;;;;;;1.50;1.33;;;4.60;99.90;;;;;;5048840;28;20783;-67
2021/12/12 07:48:25;;;;;;;2.70;2.50;;;4.60;99.90;;;;;;5059217;28;20206;-69
2021/12/12 07:50:53;;;;;;;4.05;2.60;;;4.60;99.90;;;;;;5050608;28;20223;-69
2021/12/12 07:53:25;;;;;;;2.08;1.85;;;4.60;99.90;;;;;;5039039;28;20204;-69
2021/12/12 07:55:54;;;;;;;2.50;2.00;;;4.60;99.90;;;;;;5049807;28;20668;-67
2021/12/12 07:58:22;;;;;;;1.80;1.70;;;4.60;99.90;;;;;;5049225;28;20666;-68
2021/12/12 08:00:51;;;;;;;1.90;1.75;;;4.60;99.90;;;;;;5049194;28;20234;-67
2021/12/12 08:03:22;;;;;;;4.88;2.42;;;4.70;99.90;;;;;;5048453;28;20211;-67
2021/12/12 08:05:50;;;;;;;4.78;1.55;;;4.70;99.90;;;;;;5049359;28;20290;-67
2021/12/12 08:08:17;;;;;;;1.77;1.67;;;4.70;99.90;;;;;;5049350;28;20552;-68
2021/12/12 08:10:49;;;;;;;4.22;1.92;;;4.70;99.90;;;;;;5049289;28;20208;-68
2021/12/12 08:13:17;;;;;;;3.30;3.00;;;4.80;99.90;;;;;;5049022;28;20208;-67
2021/12/12 08:15:44;;;;;;;2.90;1.33;;;4.80;99.90;;;;;;5049079;28;20575;-67
2021/12/12 08:18:13;;;;;;;2.08;1.92;;;4.90;99.90;;;;;;5048908;28;20275;-68
2021/12/12 08:20:44;;;;;;;2.65;1.40;;;4.90;99.90;;;;;;5048078;28;20259;-69
2021/12/12 08:23:11;;;;;;;2.60;1.88;;;4.90;99.90;;;;;;5048996;28;20678;-69
2021/12/12 08:25:40;;;;;;;2.00;1.90;;;4.90;99.90;;;;;;5049571;28;20289;-68
2021/12/12 08:28:09;;;;;;;3.78;2.67;;;4.90;99.90;;;;;;5057682;28;20670;-67
2021/12/12 08:30:37;;;;;;;3.08;2.05;;;5.00;99.90;;;;;;5049681;28;20222;-67
2021/12/12 08:33:07;;;;;;;2.60;1.77;;;5.00;99.90;;;;;;5048387;28;20204;-67
2021/12/12 08:35:35;;;;;;;3.17;2.33;;;5.00;99.90;;;;;;5049139;28;20233;-67
2021/12/12 08:38:05;;;;;;;4.18;1.95;;;5.00;99.90;;;;;;5048844;28;20226;-68
2021/12/12 08:40:42;;;;;;;2.78;1.98;;;5.00;99.90;;;;;;5048495;28;20754;-67
2021/12/12 08:43:13;;;;;;;1.65;1.55;;;5.00;99.90;;;;;;5048778;28;20203;-67
2021/12/12 08:45:44;;;;;;;1.08;1.08;;;5.10;99.90;;;;;;5047582;28;20226;-68
2021/12/12 08:48:12;;;;;;;1.63;1.52;;;5.10;99.90;;;;;;5048929;28;20208;-67
2021/12/12 08:50:41;;;;;;;1.60;1.50;;;5.10;99.90;;;;;;5048041;28;20205;-67
2021/12/12 08:53:09;;;;;;;2.40;1.88;;;5.10;99.90;;;;;;5047521;28;20195;-68
2021/12/12 08:55:39;;;;;;;2.50;1.90;;;5.20;99.90;;;;;;5048657;28;20600;-67
2021/12/12 08:58:15;;;;;;;1.90;1.45;;;5.10;99.90;;;;;;5048598;28;20487;-67
2021/12/12 09:00:48;;;;;;;2.03;1.73;;;5.20;99.90;;;;;;5047976;28;20211;-67
2021/12/12 09:03:19;;;;;;;3.15;2.08;;;5.20;99.90;;;;;;5056614;28;20210;-68
2021/12/12 09:05:47;;;;;;;1.40;1.30;;;5.20;99.90;;;;;;5048666;28;20315;-67
2021/12/12 09:08:18;;;;;;;2.35;1.70;;;5.30;99.90;;;;;;5048735;28;20626;-67
2021/12/12 09:10:54;;;;;;;2.72;2.53;;;5.30;99.90;;;;;;5048516;28;20238;-68
2021/12/12 09:13:24;;;;;;;2.55;1.75;;;5.30;99.90;;;;;;5048559;28;20248;-70
2021/12/12 09:15:59;;;;;;;2.00;1.48;;;5.30;99.90;;;;;;5047969;28;20294;-67
2021/12/12 09:18:30;;;;;;;2.47;1.80;;;5.40;99.90;;;;;;5047181;28;20300;-67
2021/12/12 09:21:05;;;;;;;1.70;1.60;;;5.30;99.90;;;;;;5048553;28;20274;-67
2021/12/12 09:23:35;;;;;;;1.63;1.50;;;5.40;99.90;;;;;;5038968;28;20220;-67
2021/12/12 09:26:06;;;;;;;1.27;1.27;;;5.40;99.90;;;;;;5050286;28;20278;-66
2021/12/12 09:28:39;;;;;;;2.55;2.35;;;5.50;99.90;;;;;;5050655;28;20704;-67
2021/12/12 09:31:10;;;;;;;1.10;1.00;;;5.50;99.90;;;;;;5063993;28;20209;-68
2021/12/12 09:33:48;;;;;;;1.85;1.75;;;5.50;99.90;;;;;;5058926;28;20301;-67
2021/12/12 09:36:19;;;;;;;1.52;1.42;;;5.50;99.90;;;;;;5059703;28;20239;-67
2021/12/12 09:38:52;;;;;;;1.30;1.20;;;5.50;99.90;;;;;;5055645;28;20633;-69
2021/12/12 09:41:31;;;;;;;1.40;1.30;;;5.60;99.90;;;;;;5051954;28;20651;-69
2021/12/12 09:44:18;;;;;;;1.60;0.77;;;5.50;99.90;;;;;;5051745;28;20204;-67
2021/12/12 09:47:25;;;;;;;1.70;1.38;;;5.50;99.90;;;;;;5038903;28;20204;-68
2021/12/12 09:53:23;;;;;;;1.17;1.08;;;5.50;99.90;;;;;;5050685;28;20219;-68
2021/12/12 09:55:54;;;;;;;1.77;1.60;;;5.60;99.90;;;;;;5052068;28;20226;-68
2021/12/12 09:58:45;;;;;;;2.80;1.77;;;5.70;99.90;;;;;;5051916;28;20232;-68
2021/12/12 10:01:17;;;;;;;2.08;1.10;;;5.70;99.90;;;;;;5040605;28;20216;-68
2021/12/12 10:04:04;;;;;;;1.10;1.00;;;5.70;99.90;;;;;;5054224;28;20207;-67
2021/12/12 10:06:38;;;;;;;4.10;2.10;;;5.80;99.90;;;;;;5056114;28;20212;-67
2021/12/12 10:09:10;;;;;;;5.63;3.67;;;5.80;99.90;;;;;;5050416;28;20764;-67
2021/12/12 10:11:41;;;;;;;2.63;1.90;;;5.80;99.90;;;;;;5050275;28;20306;-67
2021/12/12 10:14:14;;;;;;;2.00;1.80;;;5.80;99.90;;;;;;5054985;28;20262;-68
2021/12/12 10:16:49;;;;;;;1.75;1.65;;;5.90;99.90;;;;;;5051127;28;20669;-67
2021/12/12 10:19:29;;;;;;;1.60;1.45;;;5.90;99.90;;;;;;5050023;28;20232;-68
2021/12/12 10:22:06;;;;;;;1.88;1.73;;;6.00;99.90;;;;;;5050934;28;20239;-69
2021/12/12 10:24:36;;;;;;;2.67;1.17;;;6.00;99.90;;;;;;5051318;28;20233;-69
2021/12/12 10:27:09;;;;;;;1.42;1.25;;;6.10;99.90;;;;;;5055179;28;20203;-68
2021/12/12 10:29:47;;;;;;;1.40;1.13;;;6.10;99.90;;;;;;5050649;28;20206;-68
2021/12/12 10:32:21;;;;;;;1.45;1.35;;;6.10;99.90;;;;;;5050823;28;20212;-68
2021/12/12 10:34:58;;;;;;;1.20;1.10;;;6.20;99.90;;;;;;5051425;28;20776;-68
2021/12/12 10:37:28;;;;;;;1.42;1.33;;;6.20;99.90;;;;;;5051131;28;20232;-68
2021/12/12 10:39:59;;;;;;;1.50;1.40;;;6.20;99.90;;;;;;5050797;28;20632;-68
2021/12/12 10:42:30;;;;;;;1.58;1.48;;;6.20;99.90;;;;;;5051319;28;20643;-68
2021/12/12 10:45:01;;;;;;;1.90;0.60;;;6.30;99.90;;;;;;5048531;28;20223;-67
2021/12/12 10:47:34;;;;;;;0.70;0.65;;;6.30;99.90;;;;;;5051567;28;20208;-69
2021/12/12 10:50:10;;;;;;;1.33;1.23;;;6.30;99.90;;;;;;5051327;28;20326;-68
2021/12/12 10:52:41;;;;;;;1.20;1.10;;;6.30;99.90;;;;;;5052009;28;20205;-69
2021/12/12 10:55:16;;;;;;;1.20;1.10;;;6.30;99.90;;;;;;5038730;28;20723;-68
2021/12/12 10:57:53;;;;;;;0.82;0.80;;;6.40;99.90;;;;;;5052350;28;20286;-68
2021/12/12 11:00:24;;;;;;;1.48;1.38;;;6.40;99.90;;;;;;5050275;28;20698;-69
2021/12/12 11:03:02;;;;;;;1.40;1.00;;;6.40;99.90;;;;;;5049230;28;20208;-69
2021/12/12 11:05:35;;;;;;;4.07;2.10;;;6.50;99.90;;;;;;5050483;28;20229;-69
2021/12/12 11:08:10;;;;;;;3.00;1.90;;;6.50;99.90;;;;;;5050421;28;20199;-68
2021/12/12 11:10:41;;;;;;;2.35;1.52;;;6.50;99.90;;;;;;5061282;28;20605;-68
2021/12/12 11:13:11;;;;;;;1.30;1.20;;;6.60;99.90;;;;;;5053745;28;20794;-69
2021/12/12 11:15:43;;;;;;;0.95;0.70;;;6.60;99.90;;;;;;5049497;28;20221;-69
2021/12/12 11:18:16;;;;;;;1.48;1.20;;;6.60;99.90;;;;;;5049821;28;20710;-69
2021/12/12 11:20:48;;;;;;;0.88;0.88;;;6.70;99.90;;;;;;5050102;28;20210;-69
2021/12/12 11:23:20;;;;;;;0.90;0.70;;;6.70;99.90;;;;;;5046986;28;20238;-69
2021/12/12 11:25:50;;;;;;;1.15;1.05;;;6.70;99.90;;;;;;5049555;28;20613;-69
2021/12/12 11:28:22;;;;;;;1.05;0.98;;;6.80;99.90;;;;;;5046393;28;20204;-69
2021/12/12 11:30:53;;;;;;;1.00;1.00;;;6.90;99.90;;;;;;5049909;28;20206;-69
2021/12/12 11:33:21;;;;;;;1.35;1.25;;;6.90;99.90;;;;;;5050097;28;20264;-69
2021/12/12 11:35:54;;;;;;;1.52;1.42;;;7.00;99.90;;;;;;5038489;28;20229;-69
2021/12/12 11:38:31;;;;;;;0.80;0.70;;;7.00;99.90;;;;;;5050240;28;20230;-69
2021/12/12 11:41:04;;;;;;;0.80;0.60;;;7.00;99.90;;;;;;5050005;28;20247;-70
2021/12/12 11:43:35;;;;;;;1.45;0.80;;;7.00;99.90;;;;;;5049415;28;20215;-69
2021/12/12 11:46:09;;;;;;;0.98;0.98;;;7.00;99.90;;;;;;5050161;28;20241;-69
2021/12/12 11:48:48;;;;;;;3.88;1.23;;;7.00;99.90;;;;;;5048503;28;20212;-69
2021/12/12 11:51:22;;;;;;;0.55;0.55;;;7.10;99.90;;;;;;5048395;28;20348;-69
2021/12/12 11:53:52;;;;;;;2.55;1.13;;;7.00;99.90;;;;;;5047756;28;20203;-69
2021/12/12 11:56:24;;;;;;;1.40;1.30;;;7.00;99.90;;;;;;5049940;28;20670;-68
2021/12/12 11:59:07;;;;;;;1.70;1.23;;;7.00;99.90;;;;;;5048192;28;20313;-68
2021/12/12 12:01:51;;;;;;;0.90;0.90;;;7.00;99.90;;;;;;5049515;28;20202;-68
2021/12/12 12:04:54;;;;;;;1.80;1.70;;;7.00;99.90;;;;;;5046665;28;20273;-69
2021/12/12 12:07:42;;;;;;;1.48;1.38;;;7.00;99.90;;;;;;5074232;22;20246;-71
2021/12/12 12:10:12;;;;;;;1.83;1.02;;;7.00;99.90;;;;;;5064535;28;20199;-68
2021/12/12 12:12:53;;;;;;;1.67;1.58;;;7.00;99.90;;;;;;5067131;28;20597;-69
2021/12/12 12:15:24;;;;;;;1.45;1.08;;;7.00;99.90;;;;;;5055058;28;20817;-69
2021/12/12 12:18:02;;;;;;;2.40;2.00;;;7.00;99.90;;;;;;5078391;28;20205;-70
2021/12/12 12:20:37;;;;;;;4.15;1.30;;;7.10;99.90;;;;;;5074344;28;20221;-72
2021/12/12 12:23:18;;;;;;;1.05;0.90;;;7.10;99.90;;;;;;5074296;28;20206;-69
2021/12/12 12:28:39;;;;;;;1.30;1.20;;;7.20;99.90;;;;;;5079668;28;20204;-68
2021/12/12 12:32:12;;;;;;;0.90;0.90;;;7.20;99.90;;;;;;5075561;28;20210;-69
2021/12/12 12:35:16;;;;;;;1.30;0.90;;;7.20;99.90;;;;;;5074549;28;20217;-68
2021/12/12 12:38:20;;;;;;;1.13;1.02;;;7.20;99.90;;;;;;5077498;28;20564;-67
2021/12/12 12:41:24;;;;;;;1.75;1.65;;;7.20;99.90;;;;;;5084936;28;20205;-69
2021/12/12 12:44:51;;;;;;;1.30;1.20;;;7.20;99.90;;;;;;5087233;28;20202;-68
2021/12/12 12:51:02;;;;;;;1.27;1.17;;;7.20;99.90;;;;;;5122718;27;20520;-70
2021/12/12 12:53:53;;;;;;;1.88;1.10;;;7.20;99.90;;;;;;5109284;28;20338;-68
2021/12/12 12:57:17;;;;;;;1.67;1.15;;;7.20;99.90;;;;;;5106121;28;20221;-68
2021/12/12 12:59:58;;;;;;;1.50;0.68;;;7.20;99.90;;;;;;5100120;28;20228;-68
2021/12/12 13:02:31;;;;;;;1.35;1.17;;;7.20;99.90;;;;;;5101714;28;20623;-69
2021/12/12 13:05:36;;;;;;;1.30;1.20;;;7.20;99.90;;;;;;5101807;28;20195;-70
2021/12/12 13:08:46;;;;;;;1.40;1.30;;;7.30;99.90;;;;;;5097936;27;20348;-69
2021/12/12 13:11:16;;;;;;;1.17;1.08;;;7.40;99.90;;;;;;5095242;28;20272;-68
2021/12/12 13:13:49;;;;;;;0.88;0.88;;;7.40;99.90;;;;;;5105436;28;20737;-70
2021/12/12 13:16:24;;;;;;;1.58;1.10;;;7.50;99.90;;;;;;5104334;28;20687;-69
2021/12/12 13:18:55;;;;;;;1.50;1.15;;;7.50;99.90;;;;;;5091503;28;20210;-70
2021/12/12 13:21:28;;;;;;;1.05;0.88;;;7.60;99.90;;;;;;5101314;28;20500;-70
2021/12/12 13:24:10;;;;;;;5.03;1.40;;;7.60;99.90;;;;;;5107528;28;20210;-71
2021/12/12 13:26:53;;;;;;;1.67;1.58;;;7.60;99.90;;;;;;5100897;28;20602;-69
2021/12/12 13:29:35;;;;;;;0.80;0.80;;;7.70;99.90;;;;;;5098549;28;20286;-69
2021/12/12 13:32:10;;;;;;;0.70;0.70;;;7.70;99.90;;;;;;5099749;28;20971;-70
2021/12/12 13:34:39;;;;;;;0.70;0.70;;;7.70;99.90;;;;;;5095155;28;20263;-69
2021/12/12 13:37:19;;;;;;;0.75;0.70;;;7.70;99.90;;;;;;5102871;28;20226;-69
2021/12/12 13:39:57;;;;;;;1.77;0.90;;;7.70;99.90;;;;;;5104872;28;20203;-69
2021/12/12 13:42:34;;;;;;;0.80;0.60;;;7.70;99.90;;;;;;5101987;28;20588;-73
2021/12/12 13:45:13;;;;;;;1.00;0.80;;;7.80;99.90;;;;;;5105762;28;20499;-69
2021/12/12 13:47:54;;;;;;;1.20;1.10;;;7.80;99.90;;;;;;5106815;27;20250;-72
2021/12/12 13:50:27;;;;;;;1.33;1.10;;;7.80;99.90;;;;;;5097528;28;20234;-70